Badlands National Park, SD

10:00 PM MDT on August 29, 2014 (GMT -0600)
RAWS PINNACLES SD US | Change Station
CLOSE
Current Station
Personal Weather Station
Location: Wall, SD
Elevation: 3080 ft
Nearby Weather Stations

Elev 3080 ft 43.88 °N, 102.24 °W | Updated 40 minutes ago

Clear
Clear
65 °F
Feels Like 65 °F
N
9
Wind Variable Wind from NE
Gusts 12.0 mph

Today
High -- | Low -- °F
--% Chance of Precip.
Yesterday
High -- | Low -- °F
Precip. -- in
6:07 AM 7:28 PM
Waxing Crescent, 18% visible
Pressure 29.94 in
Visibility 10.0 miles
Clouds Clear
Dew Point 53 °F
Humidity 66%
Rainfall 0.00 in
Snow Depth Not available.
UV 0 out of 12
Pollen 9.20 out of 12
Air Quality Not available.
Flu Activity Not available.
METAR KPHP 300355Z AUTO 09003KT 10SM CLR 17/13 A2998 RMK AO2 SLP138 T01720133

More Conditions Fewer Conditions

Pressure 29.94 in
Visibility 10.0 miles
Clouds Clear
Dew Point 53 °F
Humidity 66%
Rainfall 0.00 in
Snow Depth Not available.
UV 0 out of 12
Pollen 9.20 out of 12
Air Quality Not available.
Flu Activity Not available.
METAR KPHP 300355Z AUTO 09003KT 10SM CLR 17/13 A2998 RMK AO2 SLP138 T01720133

More Conditions Fewer Conditions

10-Day Weather Forecast

Almanac

Astronomy

Aug. 29, 2014 Rise Set
Actual Time 6:07 AM MDT 7:28 PM MDT
Civil Twilight 5:38 AM MDT 7:58 PM MDT
Nautical Twilight 5:02 AM MDT 8:33 PM MDT
Astronomical Twilight 4:24 AM MDT 9:11 PM MDT
Moon 10:08 AM MDT (8/29) 9:17 PM MDT (8/29)
Length of Visible Light 14h 20m
Length of Day
13h 20m
Tomorrow will be 2m 52s shorter.
Waxing Crescent, 18% of the Moon is Illuminated
Aug 30
Waxing Crescent
Sep 2
First Quarter
Sep 8
Full
Sep 15
Last Quarter
Sep 24
New

Today's Extremes

State Highs State Lows

Community

WunderPhotos

Upload Photos

1,748,445 photos uploaded!

Nearby

Snow Depth

Station Depth Elevation
North Rapid Creek 0 in 6130 ft
Blind Park 0 in 6890 ft

Earthquake Activity

City Distance Mag. Time & Date
No recent earthquake activity has been reported nearby.
Minimum magnitude displayed is 2.5.

Coastal Water Temperatures

Place Temperature
No Stations Reporting

Nearby Weather Stations